sensor_id;sensor_type;location;lat;lon;timestamp;temperature;humidity
5848;DHT22;8756;49.29324300;8.70599800;2023-04-10T00:02:25;7.30;99.90
5848;DHT22;8756;49.29324300;8.70599800;2023-04-10T00:04:51;7.30;99.90
5848;DHT22;8756;49.29324300;8.70599800;2023-04-10T00:07:16;7.30;99.90
5848;DHT22;8756;49.29324300;8.70599800;2023-04-10T00:09:42;7.30;99.90
5848;DHT22;8756;49.29324300;8.70599800;2023-04-10T00:12:08;7.20;99.90
5848;DHT22;8756;49.29324300;8.70599800;2023-04-10T00:14:35;7.20;99.90
5848;DHT22;8756;49.29324300;8.70599800;2023-04-10T00:17:01;7.20;99.90
5848;DHT22;8756;49.29324300;8.70599800;2023-04-10T00:19:27;7.20;99.90
5848;DHT22;8756;49.29324300;8.70599800;2023-04-10T00:21:54;7.20;99.90
5848;DHT22;8756;49.29324300;8.70599800;2023-04-10T00:24:20;7.10;99.90
5848;DHT22;8756;49.29324300;8.70599800;2023-04-10T00:26:45;7.20;99.90
5848;DHT22;8756;49.29324300;8.70599800;2023-04-10T00:29:11;7.20;99.90
5848;DHT22;8756;49.29324300;8.70599800;2023-04-10T00:31:37;7.10;99.90
5848;DHT22;8756;49.29324300;8.70599800;2023-04-10T00:34:02;7.10;99.90
5848;DHT22;8756;49.29324300;8.70599800;2023-04-10T00:36:28;7.10;99.90
5848;DHT22;8756;49.29324300;8.70599800;2023-04-10T00:38:54;7.10;99.90
5848;DHT22;8756;49.29324300;8.70599800;2023-04-10T00:41:19;7.00;99.90
5848;DHT22;8756;49.29324300;8.70599800;2023-04-10T00:43:45;7.00;99.90
5848;DHT22;8756;49.29324300;8.70599800;2023-04-10T00:46:11;7.00;99.90
5848;DHT22;8756;49.29324300;8.70599800;2023-04-10T00:48:37;6.90;99.90
5848;DHT22;8756;49.29324300;8.70599800;2023-04-10T00:51:04;6.90;99.90
5848;DHT22;8756;49.29324300;8.70599800;2023-04-10T00:53:31;6.90;99.90
5848;DHT22;8756;49.29324300;8.70599800;2023-04-10T00:55:56;6.90;99.90
5848;DHT22;8756;49.29324300;8.70599800;2023-04-10T00:58:23;6.90;99.90
5848;DHT22;8756;49.29324300;8.70599800;2023-04-10T01:00:50;7.00;99.90
5848;DHT22;8756;49.29324300;8.70599800;2023-04-10T01:03:17;7.00;99.90
5848;DHT22;8756;49.29324300;8.70599800;2023-04-10T01:06:00;6.90;99.90
5848;DHT22;8756;49.29324300;8.70599800;2023-04-10T01:08:43;7.00;99.90
5848;DHT22;8756;49.29324300;8.70599800;2023-04-10T01:13:57;6.90;99.90
5848;DHT22;8756;49.29324300;8.70599800;2023-04-10T01:17:00;6.90;99.90
5848;DHT22;8756;49.29324300;8.70599800;2023-04-10T01:19:57;6.80;99.90
5848;DHT22;8756;49.29324300;8.70599800;2023-04-10T01:22:34;6.80;99.90
5848;DHT22;8756;49.29324300;8.70599800;2023-04-10T01:28:10;6.70;99.90
5848;DHT22;8756;49.29324300;8.70599800;2023-04-10T01:30:50;6.70;99.90
5848;DHT22;8756;49.29324300;8.70599800;2023-04-10T01:33:21;6.70;99.90
5848;DHT22;8756;49.29324300;8.70599800;2023-04-10T01:35:55;6.70;99.90
5848;DHT22;8756;49.29324300;8.70599800;2023-04-10T01:38:23;6.70;99.90
5848;DHT22;8756;49.29324300;8.70599800;2023-04-10T01:40:53;6.60;99.90
5848;DHT22;8756;49.29324300;8.70599800;2023-04-10T01:43:20;6.60;99.90
5848;DHT22;8756;49.29324300;8.70599800;2023-04-10T01:45:48;6.60;99.90
5848;DHT22;8756;49.29324300;8.70599800;2023-04-10T01:48:15;6.60;99.90
5848;DHT22;8756;49.29324300;8.70599800;2023-04-10T01:50:44;6.60;99.90
5848;DHT22;8756;49.29324300;8.70599800;2023-04-10T01:53:11;6.50;99.90
5848;DHT22;8756;49.29324300;8.70599800;2023-04-10T01:55:38;6.50;99.90
5848;DHT22;8756;49.29324300;8.70599800;2023-04-10T01:58:04;6.50;99.90
5848;DHT22;8756;49.29324300;8.70599800;2023-04-10T02:00:39;6.50;99.90
5848;DHT22;8756;49.29324300;8.70599800;2023-04-10T02:03:06;6.50;99.90
5848;DHT22;8756;49.29324300;8.70599800;2023-04-10T02:05:49;6.50;99.90
5848;DHT22;8756;49.29324300;8.70599800;2023-04-10T02:08:25;6.50;99.90
5848;DHT22;8756;49.29324300;8.70599800;2023-04-10T02:11:06;6.40;99.90
5848;DHT22;8756;49.29324300;8.70599800;2023-04-10T02:13:37;6.40;99.90
5848;DHT22;8756;49.29324300;8.70599800;2023-04-10T02:16:06;6.40;99.90
5848;DHT22;8756;49.29324300;8.70599800;2023-04-10T02:18:34;6.40;99.90
5848;DHT22;8756;49.29324300;8.70599800;2023-04-10T02:21:01;6.30;99.90
5848;DHT22;8756;49.29324300;8.70599800;2023-04-10T02:23:28;6.40;99.90
5848;DHT22;8756;49.29324300;8.70599800;2023-04-10T02:25:54;6.30;99.90
5848;DHT22;8756;49.29324300;8.70599800;2023-04-10T02:28:21;6.30;99.90
5848;DHT22;8756;49.29324300;8.70599800;2023-04-10T02:30:47;6.20;99.90
5848;DHT22;8756;49.29324300;8.70599800;2023-04-10T02:33:12;6.10;99.90
5848;DHT22;8756;49.29324300;8.70599800;2023-04-10T02:35:38;6.10;99.90
5848;DHT22;8756;49.29324300;8.70599800;2023-04-10T02:38:04;6.00;99.90
5848;DHT22;8756;49.29324300;8.70599800;2023-04-10T02:40:29;5.90;99.90
5848;DHT22;8756;49.29324300;8.70599800;2023-04-10T02:42:55;5.90;99.90
5848;DHT22;8756;49.29324300;8.70599800;2023-04-10T02:45:21;5.90;99.90
5848;DHT22;8756;49.29324300;8.70599800;2023-04-10T02:47:46;5.80;99.90
5848;DHT22;8756;49.29324300;8.70599800;2023-04-10T02:50:12;5.80;99.90
5848;DHT22;8756;49.29324300;8.70599800;2023-04-10T02:52:38;5.80;99.90
5848;DHT22;8756;49.29324300;8.70599800;2023-04-10T02:55:04;5.80;99.90
5848;DHT22;8756;49.29324300;8.70599800;2023-04-10T02:57:30;5.70;99.90
5848;DHT22;8756;49.29324300;8.70599800;2023-04-10T02:59:56;5.70;99.90
5848;DHT22;8756;49.29324300;8.70599800;2023-04-10T03:02:22;5.70;99.90
5848;DHT22;8756;49.29324300;8.70599800;2023-04-10T03:04:47;5.70;99.90
5848;DHT22;8756;49.29324300;8.70599800;2023-04-10T03:07:16;5.70;99.90
5848;DHT22;8756;49.29324300;8.70599800;2023-04-10T03:09:42;5.70;99.90
5848;DHT22;8756;49.29324300;8.70599800;2023-04-10T03:12:07;5.70;99.90
5848;DHT22;8756;49.29324300;8.70599800;2023-04-10T03:14:33;5.70;99.90
5848;DHT22;8756;49.29324300;8.70599800;2023-04-10T03:16:58;5.70;99.90
5848;DHT22;8756;49.29324300;8.70599800;2023-04-10T03:19:24;5.70;99.90
5848;DHT22;8756;49.29324300;8.70599800;2023-04-10T03:21:51;5.60;99.90
5848;DHT22;8756;49.29324300;8.70599800;2023-04-10T03:24:16;5.60;99.90
5848;DHT22;8756;49.29324300;8.70599800;2023-04-10T03:26:42;5.60;99.90
5848;DHT22;8756;49.29324300;8.70599800;2023-04-10T03:29:07;5.60;99.90
5848;DHT22;8756;49.29324300;8.70599800;2023-04-10T03:31:33;5.50;99.90
5848;DHT22;8756;49.29324300;8.70599800;2023-04-10T03:33:59;5.50;99.90
5848;DHT22;8756;49.29324300;8.70599800;2023-04-10T03:36:24;5.50;99.90
5848;DHT22;8756;49.29324300;8.70599800;2023-04-10T03:38:51;5.50;99.90
5848;DHT22;8756;49.29324300;8.70599800;2023-04-10T03:41:17;5.40;99.90
5848;DHT22;8756;49.29324300;8.70599800;2023-04-10T03:43:42;5.40;99.90
5848;DHT22;8756;49.29324300;8.70599800;2023-04-10T03:46:08;5.40;99.90
5848;DHT22;8756;49.29324300;8.70599800;2023-04-10T03:48:34;5.30;99.90
5848;DHT22;8756;49.29324300;8.70599800;2023-04-10T03:50:59;5.30;99.90
5848;DHT22;8756;49.29324300;8.70599800;2023-04-10T03:53:28;5.30;99.90
5848;DHT22;8756;49.29324300;8.70599800;2023-04-10T03:55:54;5.30;99.90
5848;DHT22;8756;49.29324300;8.70599800;2023-04-10T03:58:20;5.30;99.90
5848;DHT22;8756;49.29324300;8.70599800;2023-04-10T04:00:45;5.30;99.90
5848;DHT22;8756;49.29324300;8.70599800;2023-04-10T04:03:11;5.30;99.90
5848;DHT22;8756;49.29324300;8.70599800;2023-04-10T04:05:37;5.30;99.90
5848;DHT22;8756;49.29324300;8.70599800;2023-04-10T04:08:02;5.40;99.90
5848;DHT22;8756;49.29324300;8.70599800;2023-04-10T04:10:31;5.40;99.90
5848;DHT22;8756;49.29324300;8.70599800;2023-04-10T04:12:57;5.50;99.90
5848;DHT22;8756;49.29324300;8.70599800;2023-04-10T04:15:23;5.50;99.90
5848;DHT22;8756;49.29324300;8.70599800;2023-04-10T04:17:48;5.50;99.90
5848;DHT22;8756;49.29324300;8.70599800;2023-04-10T04:20:14;5.50;99.90
5848;DHT22;8756;49.29324300;8.70599800;2023-04-10T04:22:40;5.50;99.90
5848;DHT22;8756;49.29324300;8.70599800;2023-04-10T04:25:07;5.60;99.90
5848;DHT22;8756;49.29324300;8.70599800;2023-04-10T04:27:35;5.60;99.90
5848;DHT22;8756;49.29324300;8.70599800;2023-04-10T04:30:02;5.60;99.90
5848;DHT22;8756;49.29324300;8.70599800;2023-04-10T04:32:28;5.60;99.90
5848;DHT22;8756;49.29324300;8.70599800;2023-04-10T04:34:53;5.60;99.90
5848;DHT22;8756;49.29324300;8.70599800;2023-04-10T04:37:19;5.60;99.90
5848;DHT22;8756;49.29324300;8.70599800;2023-04-10T04:39:45;5.60;99.90
5848;DHT22;8756;49.29324300;8.70599800;2023-04-10T04:42:10;5.60;99.90
5848;DHT22;8756;49.29324300;8.70599800;2023-04-10T04:44:36;5.60;99.90
5848;DHT22;8756;49.29324300;8.70599800;2023-04-10T04:47:02;5.60;99.90
5848;DHT22;8756;49.29324300;8.70599800;2023-04-10T04:49:27;5.60;99.90
5848;DHT22;8756;49.29324300;8.70599800;2023-04-10T04:51:53;5.60;99.90
5848;DHT22;8756;49.29324300;8.70599800;2023-04-10T04:54:19;5.60;99.90
5848;DHT22;8756;49.29324300;8.70599800;2023-04-10T04:56:44;5.60;99.90
5848;DHT22;8756;49.29324300;8.70599800;2023-04-10T04:59:10;5.60;99.90
5848;DHT22;8756;49.29324300;8.70599800;2023-04-10T05:01:35;5.60;99.90
5848;DHT22;8756;49.29324300;8.70599800;2023-04-10T05:04:04;5.60;99.90
5848;DHT22;8756;49.29324300;8.70599800;2023-04-10T05:06:30;5.60;99.90
5848;DHT22;8756;49.29324300;8.70599800;2023-04-10T05:08:56;5.60;99.90
5848;DHT22;8756;49.29324300;8.70599800;2023-04-10T05:11:21;5.60;99.90
5848;DHT22;8756;49.29324300;8.70599800;2023-04-10T05:13:47;5.70;99.90
5848;DHT22;8756;49.29324300;8.70599800;2023-04-10T05:16:13;5.70;99.90
5848;DHT22;8756;49.29324300;8.70599800;2023-04-10T05:18:39;5.70;99.90
5848;DHT22;8756;49.29324300;8.70599800;2023-04-10T05:21:05;5.70;99.90
5848;DHT22;8756;49.29324300;8.70599800;2023-04-10T05:23:31;5.70;99.90
5848;DHT22;8756;49.29324300;8.70599800;2023-04-10T05:25:57;5.70;99.90
5848;DHT22;8756;49.29324300;8.70599800;2023-04-10T05:28:22;5.70;99.90
5848;DHT22;8756;49.29324300;8.70599800;2023-04-10T05:30:48;5.70;99.90
5848;DHT22;8756;49.29324300;8.70599800;2023-04-10T05:33:14;5.70;99.90
5848;DHT22;8756;49.29324300;8.70599800;2023-04-10T05:35:39;5.80;99.90
5848;DHT22;8756;49.29324300;8.70599800;2023-04-10T05:38:05;5.80;99.90
5848;DHT22;8756;49.29324300;8.70599800;2023-04-10T05:40:30;5.80;99.90
5848;DHT22;8756;49.29324300;8.70599800;2023-04-10T05:42:56;5.80;99.90
5848;DHT22;8756;49.29324300;8.70599800;2023-04-10T05:45:22;5.90;99.90
5848;DHT22;8756;49.29324300;8.70599800;2023-04-10T05:47:48;5.90;99.90
5848;DHT22;8756;49.29324300;8.70599800;2023-04-10T05:50:13;5.90;99.90
5848;DHT22;8756;49.29324300;8.70599800;2023-04-10T05:52:39;5.90;99.90
5848;DHT22;8756;49.29324300;8.70599800;2023-04-10T05:55:05;6.00;99.90
5848;DHT22;8756;49.29324300;8.70599800;2023-04-10T05:57:31;6.00;99.90
5848;DHT22;8756;49.29324300;8.70599800;2023-04-10T05:59:57;6.00;99.90
5848;DHT22;8756;49.29324300;8.70599800;2023-04-10T06:02:23;6.10;99.90
5848;DHT22;8756;49.29324300;8.70599800;2023-04-10T06:04:48;6.10;99.90
5848;DHT22;8756;49.29324300;8.70599800;2023-04-10T06:07:15;6.20;99.90
5848;DHT22;8756;49.29324300;8.70599800;2023-04-10T06:09:41;6.20;99.90
5848;DHT22;8756;49.29324300;8.70599800;2023-04-10T06:12:06;6.30;99.90
5848;DHT22;8756;49.29324300;8.70599800;2023-04-10T06:14:32;6.30;99.90
5848;DHT22;8756;49.29324300;8.70599800;2023-04-10T06:16:59;6.40;99.90
5848;DHT22;8756;49.29324300;8.70599800;2023-04-10T06:19:25;6.50;99.90
5848;DHT22;8756;49.29324300;8.70599800;2023-04-10T06:21:50;6.60;99.90
5848;DHT22;8756;49.29324300;8.70599800;2023-04-10T06:24:16;6.70;99.90
5848;DHT22;8756;49.29324300;8.70599800;2023-04-10T06:26:41;6.80;99.90
5848;DHT22;8756;49.29324300;8.70599800;2023-04-10T06:29:07;6.90;99.90
5848;DHT22;8756;49.29324300;8.70599800;2023-04-10T06:31:33;7.00;99.90
5848;DHT22;8756;49.29324300;8.70599800;2023-04-10T06:33:59;7.10;99.90
5848;DHT22;8756;49.29324300;8.70599800;2023-04-10T06:36:24;7.30;99.90
5848;DHT22;8756;49.29324300;8.70599800;2023-04-10T06:38:51;7.40;99.90
5848;DHT22;8756;49.29324300;8.70599800;2023-04-10T06:41:17;7.50;99.90
5848;DHT22;8756;49.29324300;8.70599800;2023-04-10T06:43:42;7.70;99.90
5848;DHT22;8756;49.29324300;8.70599800;2023-04-10T06:46:10;7.80;99.90
5848;DHT22;8756;49.29324300;8.70599800;2023-04-10T06:48:35;7.90;99.90
5848;DHT22;8756;49.29324300;8.70599800;2023-04-10T06:51:01;8.10;99.90
5848;DHT22;8756;49.29324300;8.70599800;2023-04-10T06:53:27;8.20;99.90
5848;DHT22;8756;49.29324300;8.70599800;2023-04-10T06:55:53;8.40;99.90
5848;DHT22;8756;49.29324300;8.70599800;2023-04-10T06:58:18;8.50;99.90
5848;DHT22;8756;49.29324300;8.70599800;2023-04-10T07:00:45;8.70;99.90
5848;DHT22;8756;49.29324300;8.70599800;2023-04-10T07:03:10;8.80;99.90
5848;DHT22;8756;49.29324300;8.70599800;2023-04-10T07:05:36;8.90;99.90
5848;DHT22;8756;49.29324300;8.70599800;2023-04-10T07:08:02;9.00;99.90
5848;DHT22;8756;49.29324300;8.70599800;2023-04-10T07:10:27;9.10;99.90
5848;DHT22;8756;49.29324300;8.70599800;2023-04-10T07:12:53;9.30;99.90
5848;DHT22;8756;49.29324300;8.70599800;2023-04-10T07:15:19;9.40;99.90
5848;DHT22;8756;49.29324300;8.70599800;2023-04-10T07:17:46;9.40;99.90
5848;DHT22;8756;49.29324300;8.70599800;2023-04-10T07:20:12;9.50;99.90
5848;DHT22;8756;49.29324300;8.70599800;2023-04-10T07:22:38;9.50;99.90
5848;DHT22;8756;49.29324300;8.70599800;2023-04-10T07:25:04;9.50;99.90
5848;DHT22;8756;49.29324300;8.70599800;2023-04-10T07:27:31;9.50;99.90
5848;DHT22;8756;49.29324300;8.70599800;2023-04-10T07:29:57;9.60;99.90
5848;DHT22;8756;49.29324300;8.70599800;2023-04-10T07:32:22;9.60;99.90
5848;DHT22;8756;49.29324300;8.70599800;2023-04-10T07:34:48;9.60;99.90
5848;DHT22;8756;49.29324300;8.70599800;2023-04-10T07:37:14;9.60;99.90
5848;DHT22;8756;49.29324300;8.70599800;2023-04-10T07:39:41;9.70;99.90
5848;DHT22;8756;49.29324300;8.70599800;2023-04-10T07:42:06;9.70;99.90
5848;DHT22;8756;49.29324300;8.70599800;2023-04-10T07:44:32;9.80;99.90
5848;DHT22;8756;49.29324300;8.70599800;2023-04-10T07:46:57;9.90;99.90
5848;DHT22;8756;49.29324300;8.70599800;2023-04-10T07:49:23;9.90;99.90
5848;DHT22;8756;49.29324300;8.70599800;2023-04-10T07:51:49;10.00;99.90
5848;DHT22;8756;49.29324300;8.70599800;2023-04-10T07:54:14;10.00;99.90
5848;DHT22;8756;49.29324300;8.70599800;2023-04-10T07:56:40;10.10;99.90
5848;DHT22;8756;49.29324300;8.70599800;2023-04-10T07:59:06;10.20;99.90
5848;DHT22;8756;49.29324300;8.70599800;2023-04-10T08:01:32;10.20;99.90
5848;DHT22;8756;49.29324300;8.70599800;2023-04-10T08:03:58;10.20;99.90
5848;DHT22;8756;49.29324300;8.70599800;2023-04-10T08:06:24;10.30;99.90
5848;DHT22;8756;49.29324300;8.70599800;2023-04-10T08:08:50;10.30;99.90
5848;DHT22;8756;49.29324300;8.70599800;2023-04-10T08:11:24;10.40;99.90
5848;DHT22;8756;49.29324300;8.70599800;2023-04-10T08:13:58;10.50;99.90
5848;DHT22;8756;49.29324300;8.70599800;2023-04-10T08:16:30;10.60;99.90
5848;DHT22;8756;49.29324300;8.70599800;2023-04-10T08:18:57;10.60;99.90
5848;DHT22;8756;49.29324300;8.70599800;2023-04-10T08:21:24;10.70;99.90
5848;DHT22;8756;49.29324300;8.70599800;2023-04-10T08:23:56;10.70;99.90
5848;DHT22;8756;49.29324300;8.70599800;2023-04-10T08:26:24;10.80;99.90
5848;DHT22;8756;49.29324300;8.70599800;2023-04-10T08:28:52;10.80;99.90
5848;DHT22;8756;49.29324300;8.70599800;2023-04-10T08:31:21;10.90;99.90
5848;DHT22;8756;49.29324300;8.70599800;2023-04-10T08:33:48;11.00;99.90
5848;DHT22;8756;49.29324300;8.70599800;2023-04-10T08:36:14;11.00;99.90
5848;DHT22;8756;49.29324300;8.70599800;2023-04-10T08:38:41;11.10;99.90
5848;DHT22;8756;49.29324300;8.70599800;2023-04-10T08:41:11;11.10;99.90
5848;DHT22;8756;49.29324300;8.70599800;2023-04-10T08:43:38;11.20;99.90
5848;DHT22;8756;49.29324300;8.70599800;2023-04-10T08:46:04;11.20;99.90
5848;DHT22;8756;49.29324300;8.70599800;2023-04-10T08:48:52;11.30;99.90
5848;DHT22;8756;49.29324300;8.70599800;2023-04-10T08:51:27;11.30;99.90
5848;DHT22;8756;49.29324300;8.70599800;2023-04-10T08:53:57;11.50;99.90
5848;DHT22;8756;49.29324300;8.70599800;2023-04-10T08:56:31;11.50;99.90
5848;DHT22;8756;49.29324300;8.70599800;2023-04-10T08:59:00;11.60;99.90
5848;DHT22;8756;49.29324300;8.70599800;2023-04-10T09:01:26;11.70;99.90
5848;DHT22;8756;49.29324300;8.70599800;2023-04-10T09:03:52;11.80;99.90
5848;DHT22;8756;49.29324300;8.70599800;2023-04-10T09:06:17;11.90;99.90
5848;DHT22;8756;49.29324300;8.70599800;2023-04-10T09:08:43;12.00;99.90
5848;DHT22;8756;49.29324300;8.70599800;2023-04-10T09:11:09;12.10;99.90
5848;DHT22;8756;49.29324300;8.70599800;2023-04-10T09:13:38;12.20;99.90
5848;DHT22;8756;49.29324300;8.70599800;2023-04-10T09:16:05;12.20;99.90
5848;DHT22;8756;49.29324300;8.70599800;2023-04-10T09:18:49;12.20;99.90
5848;DHT22;8756;49.29324300;8.70599800;2023-04-10T09:21:19;12.30;99.90
5848;DHT22;8756;49.29324300;8.70599800;2023-04-10T09:23:47;12.40;99.90
5848;DHT22;8756;49.29324300;8.70599800;2023-04-10T09:26:28;12.40;99.90
5848;DHT22;8756;49.29324300;8.70599800;2023-04-10T09:29:02;12.50;99.90
5848;DHT22;8756;49.29324300;8.70599800;2023-04-10T09:31:34;12.60;99.90
5848;DHT22;8756;49.29324300;8.70599800;2023-04-10T09:34:18;12.70;99.90
5848;DHT22;8756;49.29324300;8.70599800;2023-04-10T09:36:54;12.80;99.90
5848;DHT22;8756;49.29324300;8.70599800;2023-04-10T09:39:36;12.80;99.90
5848;DHT22;8756;49.29324300;8.70599800;2023-04-10T09:42:08;12.90;99.90
5848;DHT22;8756;49.29324300;8.70599800;2023-04-10T09:44:36;13.00;99.90
5848;DHT22;8756;49.29324300;8.70599800;2023-04-10T09:49:55;13.10;99.90
5848;DHT22;8756;49.29324300;8.70599800;2023-04-10T09:52:25;13.20;99.90
5848;DHT22;8756;49.29324300;8.70599800;2023-04-10T09:54:56;13.10;99.90
5848;DHT22;8756;49.29324300;8.70599800;2023-04-10T09:57:24;13.20;99.90
5848;DHT22;8756;49.29324300;8.70599800;2023-04-10T09:59:54;13.30;99.90
5848;DHT22;8756;49.29324300;8.70599800;2023-04-10T10:02:23;13.40;99.90
5848;DHT22;8756;49.29324300;8.70599800;2023-04-10T10:04:51;13.50;99.90
5848;DHT22;8756;49.29324300;8.70599800;2023-04-10T10:07:19;13.60;99.90
5848;DHT22;8756;49.29324300;8.70599800;2023-04-10T10:09:46;13.60;99.90
5848;DHT22;8756;49.29324300;8.70599800;2023-04-10T10:12:21;13.70;99.90
5848;DHT22;8756;49.29324300;8.70599800;2023-04-10T10:14:56;13.70;99.90
5848;DHT22;8756;49.29324300;8.70599800;2023-04-10T10:17:31;13.70;99.90
5848;DHT22;8756;49.29324300;8.70599800;2023-04-10T10:20:08;13.80;99.90
5848;DHT22;8756;49.29324300;8.70599800;2023-04-10T10:22:36;13.80;99.90
5848;DHT22;8756;49.29324300;8.70599800;2023-04-10T10:25:03;13.90;99.90
5848;DHT22;8756;49.29324300;8.70599800;2023-04-10T10:27:30;13.90;99.90
5848;DHT22;8756;49.29324300;8.70599800;2023-04-10T10:29:58;13.90;99.90
5848;DHT22;8756;49.29324300;8.70599800;2023-04-10T10:32:26;14.00;99.90
5848;DHT22;8756;49.29324300;8.70599800;2023-04-10T10:34:52;14.00;99.90
5848;DHT22;8756;49.29324300;8.70599800;2023-04-10T10:37:21;14.10;99.90
5848;DHT22;8756;49.29324300;8.70599800;2023-04-10T10:40:04;14.10;99.90
5848;DHT22;8756;49.29324300;8.70599800;2023-04-10T10:45:33;14.30;99.90
5848;DHT22;8756;49.29324300;8.70599800;2023-04-10T10:48:02;14.40;99.90
5848;DHT22;8756;49.29324300;8.70599800;2023-04-10T10:50:57;14.40;99.90
5848;DHT22;8756;49.29324300;8.70599800;2023-04-10T10:53:43;14.50;99.90
5848;DHT22;8756;49.29324300;8.70599800;2023-04-10T10:58:46;14.60;99.90
5848;DHT22;8756;49.29324300;8.70599800;2023-04-10T11:01:12;14.70;99.90
5848;DHT22;8756;49.29324300;8.70599800;2023-04-10T11:03:38;14.80;99.90
5848;DHT22;8756;49.29324300;8.70599800;2023-04-10T11:06:09;14.80;99.90
5848;DHT22;8756;49.29324300;8.70599800;2023-04-10T11:08:43;14.90;99.90
5848;DHT22;8756;49.29324300;8.70599800;2023-04-10T11:11:18;14.90;99.90
5848;DHT22;8756;49.29324300;8.70599800;2023-04-10T11:16:18;14.90;99.90
5848;DHT22;8756;49.29324300;8.70599800;2023-04-10T11:21:20;15.10;99.90
5848;DHT22;8756;49.29324300;8.70599800;2023-04-10T11:24:01;15.10;99.90
5848;DHT22;8756;49.29324300;8.70599800;2023-04-10T11:32:02;15.30;99.90
5848;DHT22;8756;49.29324300;8.70599800;2023-04-10T11:34:29;15.40;99.90
5848;DHT22;8756;49.29324300;8.70599800;2023-04-10T11:36:59;15.50;99.90
5848;DHT22;8756;49.29324300;8.70599800;2023-04-10T11:39:27;15.60;99.90
5848;DHT22;8756;49.29324300;8.70599800;2023-04-10T11:41:54;15.70;99.90
5848;DHT22;8756;49.29324300;8.70599800;2023-04-10T11:46:56;15.90;99.90
5848;DHT22;8756;49.29324300;8.70599800;2023-04-10T11:49:24;15.90;99.90
5848;DHT22;8756;49.29324300;8.70599800;2023-04-10T11:51:51;15.90;99.90
5848;DHT22;8756;49.29324300;8.70599800;2023-04-10T11:54:22;15.90;99.90
5848;DHT22;8756;49.29324300;8.70599800;2023-04-10T11:57:00;15.90;98.70
5848;DHT22;8756;49.29324300;8.70599800;2023-04-10T11:59:32;16.00;99.90
5848;DHT22;8756;49.29324300;8.70599800;2023-04-10T12:02:12;16.00;99.90
5848;DHT22;8756;49.29324300;8.70599800;2023-04-10T12:04:39;16.00;99.90
5848;DHT22;8756;49.29324300;8.70599800;2023-04-10T12:07:06;16.00;99.90
5848;DHT22;8756;49.29324300;8.70599800;2023-04-10T12:09:32;16.00;99.90
5848;DHT22;8756;49.29324300;8.70599800;2023-04-10T12:12:03;16.00;99.90
5848;DHT22;8756;49.29324300;8.70599800;2023-04-10T12:14:30;16.10;98.60
5848;DHT22;8756;49.29324300;8.70599800;2023-04-10T12:16:58;16.20;95.90
5848;DHT22;8756;49.29324300;8.70599800;2023-04-10T12:19:24;16.30;97.00
5848;DHT22;8756;49.29324300;8.70599800;2023-04-10T12:21:50;16.30;97.60
5848;DHT22;8756;49.29324300;8.70599800;2023-04-10T12:24:55;16.30;96.10
5848;DHT22;8756;49.29324300;8.70599800;2023-04-10T12:27:25;16.40;95.80
5848;DHT22;8756;49.29324300;8.70599800;2023-04-10T12:29:53;16.40;94.50
5848;DHT22;8756;49.29324300;8.70599800;2023-04-10T12:32:20;16.40;94.40
5848;DHT22;8756;49.29324300;8.70599800;2023-04-10T12:34:54;16.40;95.20
5848;DHT22;8756;49.29324300;8.70599800;2023-04-10T12:37:48;16.50;94.70
5848;DHT22;8756;49.29324300;8.70599800;2023-04-10T12:40:15;16.60;95.50
5848;DHT22;8756;49.29324300;8.70599800;2023-04-10T12:42:42;16.60;96.10
5848;DHT22;8756;49.29324300;8.70599800;2023-04-10T12:45:08;16.60;95.00
5848;DHT22;8756;49.29324300;8.70599800;2023-04-10T12:47:48;16.60;94.90
5848;DHT22;8756;49.29324300;8.70599800;2023-04-10T12:50:17;16.70;95.60
5848;DHT22;8756;49.29324300;8.70599800;2023-04-10T12:52:44;16.70;93.40
5848;DHT22;8756;49.29324300;8.70599800;2023-04-10T12:57:47;16.90;92.90
5848;DHT22;8756;49.29324300;8.70599800;2023-04-10T13:00:15;17.00;91.70
5848;DHT22;8756;49.29324300;8.70599800;2023-04-10T13:02:43;17.10;93.30
5848;DHT22;8756;49.29324300;8.70599800;2023-04-10T13:05:09;17.10;92.50
5848;DHT22;8756;49.29324300;8.70599800;2023-04-10T13:07:36;17.10;91.90
5848;DHT22;8756;49.29324300;8.70599800;2023-04-10T13:10:03;17.20;90.70
5848;DHT22;8756;49.29324300;8.70599800;2023-04-10T13:12:30;17.10;90.10
5848;DHT22;8756;49.29324300;8.70599800;2023-04-10T13:14:56;17.20;91.50
5848;DHT22;8756;49.29324300;8.70599800;2023-04-10T13:17:23;17.20;90.30
5848;DHT22;8756;49.29324300;8.70599800;2023-04-10T13:19:49;17.30;90.60
5848;DHT22;8756;49.29324300;8.70599800;2023-04-10T13:22:15;17.20;91.50
5848;DHT22;8756;49.29324300;8.70599800;2023-04-10T13:24:41;17.20;92.50
5848;DHT22;8756;49.29324300;8.70599800;2023-04-10T13:27:07;17.20;91.10
5848;DHT22;8756;49.29324300;8.70599800;2023-04-10T13:29:37;17.10;93.50
5848;DHT22;8756;49.29324300;8.70599800;2023-04-10T13:32:04;17.20;92.90
5848;DHT22;8756;49.29324300;8.70599800;2023-04-10T13:34:33;17.20;92.60
5848;DHT22;8756;49.29324300;8.70599800;2023-04-10T13:36:59;17.20;92.10
5848;DHT22;8756;49.29324300;8.70599800;2023-04-10T13:39:29;17.30;92.60
5848;DHT22;8756;49.29324300;8.70599800;2023-04-10T13:41:56;17.30;93.70
5848;DHT22;8756;49.29324300;8.70599800;2023-04-10T13:44:22;17.20;93.40
5848;DHT22;8756;49.29324300;8.70599800;2023-04-10T13:46:48;17.20;92.40
5848;DHT22;8756;49.29324300;8.70599800;2023-04-10T13:49:14;17.30;90.40
5848;DHT22;8756;49.29324300;8.70599800;2023-04-10T13:51:43;17.40;88.90
5848;DHT22;8756;49.29324300;8.70599800;2023-04-10T13:54:09;17.50;87.30
5848;DHT22;8756;49.29324300;8.70599800;2023-04-10T13:56:35;17.50;90.70
5848;DHT22;8756;49.29324300;8.70599800;2023-04-10T13:59:01;17.50;87.90
5848;DHT22;8756;49.29324300;8.70599800;2023-04-10T14:01:27;17.50;88.10
5848;DHT22;8756;49.29324300;8.70599800;2023-04-10T14:03:52;17.50;90.70
5848;DHT22;8756;49.29324300;8.70599800;2023-04-10T14:06:18;17.40;91.20
5848;DHT22;8756;49.29324300;8.70599800;2023-04-10T14:08:43;17.40;88.00
5848;DHT22;8756;49.29324300;8.70599800;2023-04-10T14:11:09;17.40;90.10
5848;DHT22;8756;49.29324300;8.70599800;2023-04-10T14:13:35;17.40;88.00
5848;DHT22;8756;49.29324300;8.70599800;2023-04-10T14:16:00;17.40;86.60
5848;DHT22;8756;49.29324300;8.70599800;2023-04-10T14:18:28;17.50;84.60
5848;DHT22;8756;49.29324300;8.70599800;2023-04-10T14:20:54;17.60;85.50
5848;DHT22;8756;49.29324300;8.70599800;2023-04-10T14:23:19;17.60;82.30
5848;DHT22;8756;49.29324300;8.70599800;2023-04-10T14:25:48;17.70;84.40
5848;DHT22;8756;49.29324300;8.70599800;2023-04-10T14:28:14;17.60;84.00